Linwood, Pennsylvania
Current Conditions -  °F | °C
As of 4:54 AM on Saturday 29 Nov 2014 (Local Time) from KPHL Reporting Station
Scattered Clouds Scattered Clouds  
Wind Chill: 28°   Ceiling: Unl
Heat Index: 28°   Visibility: 10mi
Dew Point: 17°   Wind: 3mph
Humidity: 63%   Direction: 320°NW
Pressure: 30.34"   Gusts: NA
Location:  39.8393°N, 75.4661°W
Report Text: KPHL 290954Z 32003KT 10SM FEW080 SCT120 M02/M08 A3034 RMK AO2 SLP273 T10221083 $
Loading
Personal Weather Stations






























Interactive Weather Map New forecast layout! Learn more

10-Day Weather Forecast

Advertisements
Track Severe Weather on mobile